Marfa, TX (79843)

3:01 PM CDT on August 24, 2016 (GMT -0500)
MesoWest | | Change Station

Elev 4886 ft 30.35 °N, 104.13 °W | Updated 2 hours ago

Overcast
Overcast
66.0 °F
Feels Like 66.0 °F
N
9.0
Wind Variable Wind from NE
Gusts 10.0 mph

Today
High -- | Low -- °F
--% Chance of Precip.
Yesterday
High -- | Low -- °F
Precip. -- in
Pressure 30.30 in
Visibility 10.0 miles
Clouds Scattered Clouds 500 ft
Mostly Cloudy 1000 ft
Overcast 6000 ft
Dew Point Not available.
Humidity Not available.
Rainfall in
Snow Depth Not available.
7:28 AM 8:27 PM
Waning Gibbous, 54% visible
METAR KE38 241955Z AUTO 00000KT 10SM SCT005 BKN010 OVC060 17/16 A3030 RMK AO2 LTG DSNT NE AND S T01660158
Pressure 30.30 in
Visibility 10.0 miles
Clouds Scattered Clouds 500 ft
Mostly Cloudy 1000 ft
Overcast 6000 ft
Dew Point Not available.
Humidity Not available.
Rainfall in
Snow Depth Not available.
7:28 AM 8:27 PM
Waning Gibbous, 54% visible
METAR KE38 241955Z AUTO 00000KT 10SM SCT005 BKN010 OVC060 17/16 A3030 RMK AO2 LTG DSNT NE AND S T01660158

10-Day Weather Forecast

Almanac

Astronomy

Aug. 24, 2016 Rise Set
Actual Time
Civil Twilight
Nautical Twilight
Astronomical Twilight
Moon
Length of Visible Light
Length of Day
Tomorrow will be .
, % of the Moon is Illuminated

Today's Extremes

State Highs State Lows

Community

WunderPhotos

Upload Photos

1,934,696 photos uploaded!

WunderBlog® & News

Nearby

Air Quality

  Air Quality AQ Index Pollutant
Not available.

Snow Depth

Station Depth Elevation

Earthquake Activity

City Distance Mag. Time & Date
Minimum magnitude displayed is 2.5.

Coastal Water Temperatures

Place Temperature

Stations

Nearby Weather Stations

Station Location Temp. Windchill Dew Point Humidity Wind Precip. Elev Updated Type
                   

Watches & Warnings

There are currently no watches in effect.